CheckWX is a tool to help pilots better visualize weather data.  It is not intended as a substitute for an official pre-flight weather briefing.

12:48:25 UTC

KTAN METAR
Taunton Municipal - King Field Airport
Taunton, Massachusetts, USA
Current

56 mins ago

KTAN 131152Z AUTO 30008G19KT 10SM CLR M07/M18 A3013 RMK AO2 SLP204 70017 T10671183 11044 21067 52022
Observed
Nov-13 @ 11:52 UTC
Wind
  • 300° at 8 KTS
  • Gusting to 19 KTS
Visibility
10 SM
Flight Rules
VFR
Cloud Levels
  • Clear skies
Temperature
-7°C / 19°F
Dewpoint
-18°C / -0°F
Humidity
42%
Altimeter
30.13" Hg
Pressure
1020.32 hPa
24 Hour Rain
0.17"
Previous

2 hours ago

KTAN 131052Z AUTO VRB05G15KT 10SM CLR M07/M18 A3011 RMK AO2 SLP197 T10671183
Observed
Nov-13 @ 10:52 UTC
Wind
  • Variable at 5 KTS
  • Gusting to 15 KTS
Visibility
10 SM
Flight Rules
VFR
Cloud Levels
  • Clear skies
Temperature
-7°C / 19°F
Dewpoint
-18°C / -0°F
Humidity
42%
Altimeter
30.11" Hg
Pressure
1019.62 hPa
Previous

3 hours ago

KTAN 130952Z AUTO 30007G17KT 10SM CLR M06/M18 A3009 RMK AO2 SLP189 T10611183
Observed
Nov-13 @ 09:52 UTC
Wind
  • 300° at 7 KTS
  • Gusting to 17 KTS
Visibility
10 SM
Flight Rules
VFR
Cloud Levels
  • Clear skies
Temperature
-6°C / 21°F
Dewpoint
-18°C / -0°F
Humidity
38%
Altimeter
30.09" Hg
Pressure
1018.92 hPa